createdAt,value
2018-06-28T00:01:59.906Z,46.90
2018-06-28T00:04:30.669Z,47.00
2018-06-28T00:07:01.437Z,47.10
2018-06-28T00:12:02.772Z,47.70
2018-06-28T00:14:33.957Z,48.00
2018-06-28T00:17:04.715Z,48.30
2018-06-28T00:19:35.743Z,48.60
2018-06-28T00:22:06.870Z,49.20
2018-06-28T00:24:37.565Z,49.30
2018-06-28T00:27:08.686Z,49.60
2018-06-28T00:29:39.414Z,49.60
2018-06-28T00:32:10.106Z,49.60
2018-06-28T00:34:40.801Z,49.70
2018-06-28T00:37:11.480Z,49.90
2018-06-28T00:39:42.155Z,50.30
2018-06-28T00:42:12.852Z,50.80
2018-06-28T00:44:43.576Z,51.30
2018-06-28T00:47:14.249Z,51.90
2018-06-28T00:49:45.338Z,52.60
2018-06-28T00:52:17.105Z,52.60
2018-06-28T00:54:49.645Z,52.60
2018-06-28T00:59:50.414Z,52.60
2018-06-28T01:02:21.191Z,52.60
2018-06-28T01:04:52.261Z,52.50
2018-06-28T01:07:23.423Z,52.50
2018-06-28T01:09:54.222Z,52.70
2018-06-28T01:12:24.951Z,53.40
2018-06-28T01:17:25.574Z,53.90
2018-06-28T01:19:56.234Z,53.80
2018-06-28T01:22:27.017Z,53.70
2018-06-28T01:27:27.758Z,53.60
2018-06-28T01:29:58.476Z,53.60
2018-06-28T01:32:29.566Z,53.80
2018-06-28T01:37:30.999Z,54.20
2018-06-28T01:40:01.719Z,54.40
2018-06-28T01:42:43.684Z,54.50
2018-06-28T01:45:14.761Z,54.40
2018-06-28T01:47:45.490Z,54.50
2018-06-28T01:50:16.202Z,54.80
2018-06-28T01:52:47.177Z,55.10
2018-06-28T01:55:18.239Z,55.40
2018-06-28T01:57:49.095Z,55.70
2018-06-28T02:00:19.812Z,56.30
2018-06-28T02:02:50.570Z,56.70
2018-06-28T02:05:21.629Z,57.20
2018-06-28T02:07:52.661Z,57.60
2018-06-28T02:10:23.610Z,57.60
2018-06-28T02:15:24.297Z,57.80
2018-06-28T02:17:55.033Z,57.70
2018-06-28T02:20:25.721Z,57.70
2018-06-28T02:22:56.598Z,57.60
2018-06-28T02:25:27.581Z,57.80
2018-06-28T02:27:58.278Z,57.80
2018-06-28T02:30:28.986Z,58.00
2018-06-28T02:32:59.650Z,58.10
2018-06-28T02:35:30.385Z,58.00
2018-06-28T02:38:01.176Z,58.00
2018-06-28T02:40:32.212Z,58.10
2018-06-28T02:43:03.010Z,58.00
2018-06-28T02:45:33.697Z,58.10
2018-06-28T02:48:04.640Z,58.20
2018-06-28T02:50:35.349Z,58.40
2018-06-28T02:53:06.014Z,58.50
2018-06-28T02:58:07.875Z,58.70
2018-06-28T03:00:38.597Z,58.60
2018-06-28T03:03:09.288Z,58.80
2018-06-28T03:05:39.974Z,59.70
2018-06-28T03:08:10.674Z,59.10
2018-06-28T03:13:11.610Z,59.30
2018-06-28T03:15:42.591Z,59.50
2018-06-28T03:20:43.329Z,60.00
2018-06-28T03:23:13.964Z,60.10
2018-06-28T03:25:45.034Z,60.40
2018-06-28T03:28:15.685Z,60.30
2018-06-28T03:30:46.537Z,60.10
2018-06-28T03:33:17.164Z,60.10
2018-06-28T03:35:47.845Z,60.20
2018-06-28T03:38:18.623Z,60.10
2018-06-28T03:40:49.277Z,60.20
2018-06-28T03:43:20.223Z,60.20
2018-06-28T03:45:50.987Z,60.30
2018-06-28T03:48:21.697Z,60.30
2018-06-28T03:50:52.433Z,60.30
2018-06-28T03:53:23.098Z,60.30
2018-06-28T03:55:53.810Z,60.10
2018-06-28T03:58:24.498Z,60.10
2018-06-28T04:03:25.133Z,60.50
2018-06-28T04:05:56.081Z,60.50
2018-06-28T04:08:27.089Z,60.60
2018-06-28T04:10:58.217Z,60.50
2018-06-28T04:13:28.975Z,60.50
2018-06-28T04:15:59.642Z,60.40
2018-06-28T04:18:30.342Z,61.20
2018-06-28T04:21:01.202Z,60.20
2018-06-28T04:23:31.914Z,60.00
2018-06-28T04:26:02.700Z,59.90
2018-06-28T04:28:33.682Z,59.80
2018-06-28T04:31:05.275Z,60.50
2018-06-28T04:33:35.930Z,59.80
2018-06-28T04:36:06.972Z,59.80
2018-06-28T04:38:37.670Z,59.50
2018-06-28T04:41:08.449Z,59.40
2018-06-28T04:43:39.097Z,59.40
2018-06-28T04:46:10.138Z,59.10
2018-06-28T04:48:40.924Z,58.90
2018-06-28T04:51:11.579Z,58.90
2018-06-28T04:56:12.273Z,58.30
2018-06-28T04:58:42.961Z,58.10
2018-06-28T05:01:13.749Z,57.80
2018-06-28T05:03:44.478Z,57.60
2018-06-28T05:06:15.359Z,57.60
2018-06-28T05:08:46.146Z,57.50
2018-06-28T05:11:17.079Z,57.50
2018-06-28T05:13:47.844Z,57.30
2018-06-28T05:16:18.648Z,58.00
2018-06-28T05:18:49.451Z,57.50
2018-06-28T05:21:20.331Z,57.30
2018-06-28T05:23:51.125Z,57.30
2018-06-28T05:26:21.916Z,57.10
2018-06-28T05:28:52.723Z,57.00
2018-06-28T05:31:23.796Z,56.80
2018-06-28T05:33:54.834Z,56.80
2018-06-28T05:36:25.644Z,56.50
2018-06-28T05:38:56.412Z,56.50
2018-06-28T05:41:27.192Z,56.60
2018-06-28T05:46:28.340Z,55.80
2018-06-28T05:48:59.174Z,55.90
2018-06-28T05:51:30.196Z,55.30
2018-06-28T05:54:01.202Z,55.30
2018-06-28T05:56:32.218Z,55.30
2018-06-28T05:59:03.493Z,55.30
2018-06-28T06:01:34.832Z,55.20
2018-06-28T06:04:05.921Z,55.30
2018-06-28T06:06:36.962Z,55.10
2018-06-28T06:09:10.136Z,54.50
2018-06-28T06:11:41.216Z,53.60
2018-06-28T06:14:12.203Z,53.40
2018-06-28T06:16:43.817Z,53.00
2018-06-28T06:19:15.026Z,52.90
2018-06-28T06:21:45.963Z,52.40
2018-06-28T06:24:16.985Z,52.30
2018-06-28T06:26:48.069Z,52.40
2018-06-28T06:29:20.735Z,51.60
2018-06-28T06:31:52.040Z,51.30
2018-06-28T06:34:23.024Z,50.90
2018-06-28T06:36:55.012Z,50.50
2018-06-28T06:39:26.436Z,49.50
2018-06-28T06:41:57.466Z,49.00
2018-06-28T06:44:28.407Z,48.50
2018-06-28T06:47:00.346Z,48.20
2018-06-28T06:49:31.604Z,48.30
2018-06-28T06:52:02.725Z,48.30
2018-06-28T06:54:33.897Z,48.30
2018-06-28T06:57:04.943Z,48.70
2018-06-28T06:59:36.758Z,48.10
2018-06-28T07:02:08.150Z,47.80
2018-06-28T07:04:39.416Z,48.10
2018-06-28T07:07:10.497Z,47.30
2018-06-28T07:09:44.220Z,47.00
2018-06-28T07:12:15.185Z,46.30
2018-06-28T07:14:46.004Z,46.60
2018-06-28T07:17:16.749Z,46.60
2018-06-28T07:19:47.489Z,46.00
2018-06-28T07:22:18.689Z,45.70
2018-06-28T07:24:49.530Z,45.40
2018-06-28T07:27:20.278Z,45.30
2018-06-28T07:29:51.177Z,45.10
2018-06-28T07:32:22.173Z,44.70
2018-06-28T07:34:52.966Z,44.30
2018-06-28T07:39:53.754Z,44.50
2018-06-28T07:42:24.549Z,43.50
2018-06-28T07:47:25.782Z,43.40
2018-06-28T07:49:57.182Z,43.60
2018-06-28T07:52:27.998Z,43.10
2018-06-28T07:54:59.209Z,42.70
2018-06-28T07:57:29.984Z,42.40
2018-06-28T08:00:00.714Z,41.80
2018-06-28T08:02:31.545Z,41.90
2018-06-28T08:05:02.256Z,41.60
2018-06-28T08:07:33.034Z,40.70
2018-06-28T08:10:03.861Z,40.50
2018-06-28T08:12:34.596Z,41.00
2018-06-28T08:15:05.522Z,40.60
2018-06-28T08:17:36.342Z,40.60
2018-06-28T08:20:07.976Z,40.70
2018-06-28T08:22:38.726Z,40.80
2018-06-28T08:25:09.430Z,40.90
2018-06-28T08:27:40.256Z,40.70
2018-06-28T08:30:10.439Z,39.60
2018-06-28T08:32:41.322Z,39.80
2018-06-28T08:35:12.059Z,39.10
2018-06-28T08:37:42.835Z,39.20
2018-06-28T08:40:13.685Z,39.30
2018-06-28T08:42:44.425Z,39.40
2018-06-28T08:45:15.499Z,39.30
2018-06-28T08:47:46.454Z,38.50
2018-06-28T08:50:17.178Z,38.80
2018-06-28T08:52:47.934Z,38.70
2018-06-28T08:55:18.781Z,38.40
2018-06-28T08:57:49.633Z,38.10
2018-06-28T09:00:20.425Z,38.20
2018-06-28T09:02:51.193Z,37.80
2018-06-28T09:05:22.388Z,37.50
2018-06-28T09:07:53.087Z,37.30
2018-06-28T09:10:23.897Z,36.70
2018-06-28T09:12:54.704Z,36.50
2018-06-28T09:15:25.594Z,36.50
2018-06-28T09:20:26.448Z,36.10
2018-06-28T09:22:57.235Z,36.10
2018-06-28T09:25:28.167Z,36.10
2018-06-28T09:27:58.873Z,35.90
2018-06-28T09:30:29.697Z,35.60
2018-06-28T09:33:00.588Z,35.30
2018-06-28T09:35:31.432Z,34.30
2018-06-28T09:40:33.026Z,34.70
2018-06-28T09:43:03.812Z,34.30
2018-06-28T09:48:04.503Z,34.20
2018-06-28T09:50:35.262Z,34.50
2018-06-28T09:53:06.322Z,34.40
2018-06-28T09:55:37.124Z,33.90
2018-06-28T10:00:44.929Z,34.00
2018-06-28T10:05:46.611Z,32.80
2018-06-28T10:08:17.345Z,32.70
2018-06-28T10:15:48.586Z,32.90
2018-06-28T10:18:19.377Z,32.30
2018-06-28T10:20:50.142Z,32.00
2018-06-28T10:23:20.926Z,32.70
2018-06-28T10:25:51.688Z,31.40
2018-06-28T10:28:22.493Z,31.70
2018-06-28T10:30:53.238Z,32.20
2018-06-28T10:33:24.144Z,31.70
2018-06-28T10:35:55.019Z,32.10
2018-06-28T10:38:25.837Z,31.30
2018-06-28T10:40:56.729Z,30.90
2018-06-28T10:43:27.543Z,30.70
2018-06-28T10:45:58.470Z,31.10
2018-06-28T10:48:29.336Z,30.70
2018-06-28T10:51:00.186Z,31.20
2018-06-28T10:56:01.306Z,31.60
2018-06-28T10:58:32.342Z,31.60
2018-06-28T11:01:03.396Z,30.70
2018-06-28T11:03:34.582Z,30.50
2018-06-28T11:06:05.612Z,30.90
2018-06-28T11:08:36.538Z,30.80
2018-06-28T11:11:07.480Z,31.10
2018-06-28T11:13:38.439Z,30.30
2018-06-28T11:18:39.622Z,29.90
2018-06-28T11:21:10.680Z,30.00
2018-06-28T11:23:41.640Z,30.10
2018-06-28T11:26:12.644Z,29.80
2018-06-28T11:31:13.723Z,28.60
2018-06-28T11:33:44.802Z,28.60
2018-06-28T11:36:15.732Z,28.50
2018-06-28T11:38:46.692Z,28.60
2018-06-28T11:41:19.040Z,29.00
2018-06-28T11:43:49.964Z,28.50
2018-06-28T11:46:20.914Z,28.90
2018-06-28T11:48:51.920Z,28.80
2018-06-28T11:51:22.859Z,28.90
2018-06-28T11:53:53.844Z,29.10
2018-06-28T11:56:24.781Z,29.40
2018-06-28T11:58:55.740Z,29.30
2018-06-28T12:01:26.677Z,29.20
2018-06-28T12:03:57.710Z,29.40
2018-06-28T12:06:28.658Z,29.60
2018-06-28T12:08:59.726Z,29.40
2018-06-28T12:11:31.504Z,28.80
2018-06-28T12:14:02.725Z,28.60
2018-06-28T12:16:33.891Z,28.50
2018-06-28T12:19:04.914Z,28.40
2018-06-28T12:21:35.931Z,28.80
2018-06-28T12:24:07.047Z,28.90
2018-06-28T12:26:38.051Z,28.90
2018-06-28T12:29:09.071Z,29.10
2018-06-28T12:31:40.015Z,29.00
2018-06-28T12:34:11.116Z,28.60
2018-06-28T12:36:42.699Z,28.70
2018-06-28T12:39:14.236Z,28.70
2018-06-28T12:41:45.951Z,28.80
2018-06-28T12:44:16.976Z,28.60
2018-06-28T12:48:09.064Z,28.30
2018-06-28T12:50:40.069Z,28.70
2018-06-28T12:53:12.165Z,28.70
2018-06-28T12:56:49.542Z,28.70
2018-06-28T12:59:21.692Z,28.70
2018-06-28T13:01:52.723Z,28.80
2018-06-28T13:04:23.715Z,28.70
2018-06-28T13:06:54.844Z,28.70
2018-06-28T13:09:25.908Z,29.10
2018-06-28T13:11:57.533Z,28.80
2018-06-28T13:14:29.689Z,29.20
2018-06-28T13:19:30.801Z,29.00
2018-06-28T13:22:01.824Z,29.00
2018-06-28T13:24:32.734Z,29.00
2018-06-28T13:29:34.208Z,29.00
2018-06-28T13:32:05.410Z,29.10
2018-06-28T13:34:38.834Z,29.50
2018-06-28T13:37:10.200Z,29.00
2018-06-28T13:39:41.468Z,29.00
2018-06-28T13:42:12.907Z,29.10
2018-06-28T13:44:43.880Z,29.10
2018-06-28T13:47:14.800Z,29.20
2018-06-28T13:52:17.540Z,28.80
2018-06-28T13:54:48.319Z,28.60
2018-06-28T13:57:19.085Z,28.80
2018-06-28T14:02:19.826Z,28.80
2018-06-28T14:04:50.749Z,28.60
2018-06-28T14:07:21.550Z,29.10
2018-06-28T14:09:52.419Z,29.10
2018-06-28T14:14:53.142Z,29.10
2018-06-28T14:17:23.886Z,29.00
2018-06-28T14:19:54.677Z,29.10
2018-06-28T14:22:25.444Z,28.70
2018-06-28T14:24:56.253Z,28.80
2018-06-28T14:27:27.296Z,28.50
2018-06-28T14:29:58.034Z,28.30
2018-06-28T14:32:28.914Z,28.50
2018-06-28T14:34:59.603Z,28.30
2018-06-28T14:37:30.385Z,28.10
2018-06-28T14:40:01.820Z,28.10
2018-06-28T14:42:32.650Z,28.00
2018-06-28T14:45:03.630Z,27.90
2018-06-28T14:47:34.404Z,27.60
2018-06-28T14:50:06.257Z,28.20
2018-06-28T14:52:37.016Z,27.70
2018-06-28T14:55:09.074Z,27.70
2018-06-28T14:57:39.939Z,28.00
2018-06-28T15:00:11.176Z,28.10
2018-06-28T15:02:41.657Z,28.20
2018-06-28T15:05:12.666Z,28.30
2018-06-28T15:12:43.320Z,28.50
2018-06-28T15:15:14.343Z,28.40
2018-06-28T15:17:45.085Z,28.30
2018-06-28T15:20:15.822Z,28.40
2018-06-28T15:22:47.001Z,28.70
2018-06-28T15:27:47.824Z,28.90
2018-06-28T15:30:18.769Z,28.50
2018-06-28T15:32:49.586Z,28.90
2018-06-28T15:35:20.342Z,28.90
2018-06-28T15:37:51.219Z,28.90
2018-06-28T15:40:22.023Z,28.90
2018-06-28T15:42:53.062Z,29.00
2018-06-28T15:45:24.114Z,29.00
2018-06-28T15:52:55.629Z,28.80
2018-06-28T15:55:32.037Z,28.80
2018-06-28T15:58:02.877Z,29.20
2018-06-28T16:00:33.595Z,29.70
2018-06-28T16:05:34.881Z,30.10
2018-06-28T16:19:37.341Z,31.10
2018-06-28T16:22:08.265Z,30.90
2018-06-28T16:24:41.061Z,30.70
2018-06-28T16:27:13.190Z,30.80
2018-06-28T16:29:44.574Z,30.60
2018-06-28T16:32:16.606Z,30.60
2018-06-28T16:34:48.444Z,30.60
2018-06-28T16:37:19.533Z,30.50
2018-06-28T16:39:50.722Z,30.40
2018-06-28T16:42:21.750Z,30.80
2018-06-28T16:44:53.293Z,30.70
2018-06-28T16:47:24.277Z,30.80
2018-06-28T16:49:56.167Z,30.80
2018-06-28T16:52:27.615Z,30.60
2018-06-28T16:54:58.672Z,30.80
2018-06-28T16:57:29.819Z,31.80
2018-06-28T17:00:01.105Z,31.70
2018-06-28T17:02:34.253Z,31.10
2018-06-28T17:05:05.883Z,31.10
2018-06-28T17:07:38.301Z,30.80
2018-06-28T17:12:41.176Z,31.10
2018-06-28T17:15:12.129Z,31.40
2018-06-28T17:17:46.353Z,31.20
2018-06-28T17:20:17.115Z,31.30
2018-06-28T17:22:48.403Z,32.10
2018-06-28T17:25:19.446Z,31.30
2018-06-28T17:27:50.578Z,31.30
2018-06-28T17:30:21.684Z,31.30
2018-06-28T17:32:52.692Z,31.30
2018-06-28T17:35:24.697Z,31.50
2018-06-28T17:37:55.941Z,31.70
2018-06-28T17:40:27.078Z,31.80
2018-06-28T17:42:58.439Z,31.80
2018-06-28T17:45:30.092Z,31.40
2018-06-28T17:48:01.408Z,31.60
2018-06-28T17:50:32.611Z,31.70
2018-06-28T17:53:04.488Z,31.60
2018-06-28T17:55:35.854Z,32.00
2018-06-28T17:58:08.057Z,32.00
2018-06-28T18:00:39.912Z,31.90
2018-06-28T18:03:11.291Z,31.90
2018-06-28T18:05:42.360Z,31.80
2018-06-28T18:08:13.483Z,32.00
2018-06-28T18:10:44.695Z,31.70
2018-06-28T18:13:16.511Z,31.70
2018-06-28T18:15:48.026Z,31.60
2018-06-28T18:18:19.033Z,31.50
2018-06-28T18:20:50.274Z,31.50
2018-06-28T18:23:21.490Z,31.50
2018-06-28T18:25:53.118Z,31.50
2018-06-28T18:28:24.109Z,31.40
2018-06-28T18:30:55.997Z,31.40
2018-06-28T18:33:26.777Z,31.30
2018-06-28T18:35:57.694Z,31.30
2018-06-28T18:40:58.748Z,31.10
2018-06-28T18:43:29.465Z,30.90
2018-06-28T18:46:00.245Z,30.80
2018-06-28T18:48:31.045Z,30.70
2018-06-28T18:51:05.995Z,30.60
2018-06-28T18:56:07.018Z,30.40
2018-06-28T18:58:37.819Z,30.40
2018-06-28T19:01:08.506Z,30.30
2018-06-28T19:03:39.248Z,30.30
2018-06-28T19:06:09.959Z,30.30
2018-06-28T19:08:40.749Z,30.30
2018-06-28T19:11:12.029Z,30.80
2018-06-28T19:13:47.790Z,31.20
2018-06-28T19:16:23.462Z,31.50
2018-06-28T19:18:55.393Z,31.90
2018-06-28T19:21:31.411Z,31.90
2018-06-28T19:24:02.798Z,32.40
2018-06-28T19:26:34.274Z,32.20
2018-06-28T19:31:45.566Z,32.80
2018-06-28T19:34:16.749Z,32.70
2018-06-28T19:36:47.465Z,32.90
2018-06-28T19:39:23.318Z,33.10
2018-06-28T19:44:02.075Z,33.20
2018-06-28T19:46:34.986Z,33.20
2018-06-28T19:49:10.147Z,34.10
2018-06-28T19:51:47.628Z,33.50
2018-06-28T19:59:19.704Z,34.00
2018-06-28T20:01:56.600Z,34.00
2018-06-28T20:04:32.824Z,34.20
2018-06-28T20:07:03.738Z,34.30
2018-06-28T20:09:35.951Z,34.60
2018-06-28T20:12:12.333Z,34.60
2018-06-28T20:14:48.501Z,34.80
2018-06-28T20:17:25.859Z,34.90
2018-06-28T20:22:32.203Z,35.10
2018-06-28T20:25:03.391Z,35.00
2018-06-28T20:27:39.711Z,35.20
2018-06-28T20:30:15.969Z,35.30
2018-06-28T20:32:52.378Z,35.60
2018-06-28T20:35:23.710Z,35.70
2018-06-28T20:37:55.173Z,35.90
2018-06-28T20:40:26.416Z,35.90
2018-06-28T20:42:57.710Z,36.10
2018-06-28T20:45:29.106Z,36.10
2018-06-28T20:48:00.561Z,36.20
2018-06-28T20:50:31.837Z,36.30
2018-06-28T20:55:35.201Z,36.70
2018-06-28T20:58:06.804Z,36.90
2018-06-28T21:08:11.157Z,37.70
2018-06-28T21:10:42.676Z,37.70
2018-06-28T21:13:14.416Z,37.60
2018-06-28T21:15:45.853Z,37.60
2018-06-28T21:23:19.477Z,37.80
2018-06-28T21:25:51.455Z,38.00
2018-06-28T21:30:55.994Z,38.90
2018-06-28T21:33:27.361Z,38.50
2018-06-28T21:38:29.250Z,39.00
2018-06-28T21:41:01.001Z,39.00
2018-06-28T21:43:32.370Z,39.00
2018-06-28T21:46:03.478Z,39.20
2018-06-28T21:48:34.886Z,39.30
2018-06-28T21:51:06.438Z,39.60
2018-06-28T21:53:38.463Z,40.10
2018-06-28T21:56:11.023Z,40.00
2018-06-28T21:58:43.278Z,40.10
2018-06-28T22:01:15.413Z,40.10
2018-06-28T22:03:46.696Z,40.10
2018-06-28T22:06:18.235Z,39.90
2018-06-28T22:08:49.643Z,40.10
2018-06-28T22:11:21.111Z,40.50
2018-06-28T22:13:52.683Z,41.60
2018-06-28T22:16:24.118Z,41.80
2018-06-28T22:18:55.386Z,41.90
2018-06-28T22:21:26.939Z,42.20
2018-06-28T22:23:58.293Z,42.50
2018-06-28T22:26:29.763Z,42.10
2018-06-28T22:29:02.039Z,41.70
2018-06-28T22:31:34.063Z,41.50
2018-06-28T22:36:35.786Z,41.60
2018-06-28T22:39:10.689Z,41.70
2018-06-28T22:46:42.744Z,42.30
2018-06-28T22:49:14.140Z,42.50
2018-06-28T22:51:46.164Z,42.60
2018-06-28T22:54:17.359Z,42.90
2018-06-28T22:56:48.810Z,43.40
2018-06-28T22:59:20.113Z,43.70
2018-06-28T23:01:52.765Z,44.20
2018-06-28T23:04:24.966Z,44.30
2018-06-28T23:06:56.293Z,44.90
2018-06-28T23:09:27.815Z,44.80
2018-06-28T23:14:29.784Z,45.20
2018-06-28T23:19:32.717Z,45.90
2018-06-28T23:22:05.404Z,46.10
2018-06-28T23:24:37.302Z,46.30
2018-06-28T23:27:08.534Z,46.80
2018-06-28T23:29:40.810Z,46.70
2018-06-28T23:32:12.187Z,47.00
2018-06-28T23:34:43.539Z,47.20
2018-06-28T23:37:14.812Z,47.40
2018-06-28T23:39:47.830Z,47.80
2018-06-28T23:42:19.160Z,48.60
2018-06-28T23:44:50.362Z,47.90
2018-06-28T23:47:22.378Z,48.20
2018-06-28T23:49:53.930Z,48.10
2018-06-28T23:52:27.109Z,48.10
2018-06-28T23:54:58.470Z,48.60
